Time;durP1;ratioP1;P1;durP2;ratioP2;P2;SDS_P1;SDS_P2;PMS_P1;PMS_P2;Temp;Humidity;BMP_temperature;BMP_pressure;BME280_temperature;BME280_humidity;BME280_pressure;Samples;Min_cycle;Max_cycle;Signal;HPM_P1;HPM_P2
2024/02/14 00:01:13;;;;;;;11.50;8.35;;;;;;;;;;5010898;28;20085;-85
2024/02/14 00:03:41;;;;;;;13.20;8.02;;;;;;;;;;5003007;28;20137;-85
2024/02/14 00:06:08;;;;;;;12.90;7.47;;;;;;;;;;5001198;28;20046;-85
2024/02/14 00:08:37;;;;;;;12.63;7.93;;;;;;;;;;5001702;28;20158;-84
2024/02/14 00:11:05;;;;;;;14.20;8.63;;;;;;;;;;5010537;28;20418;-85
2024/02/14 00:13:35;;;;;;;13.38;8.35;;;;;;;;;;5000702;28;20068;-85
2024/02/14 00:16:02;;;;;;;11.68;8.32;;;;;;;;;;4982140;28;20507;-84
2024/02/14 00:18:30;;;;;;;10.82;7.40;;;;;;;;;;5017070;28;20053;-84
2024/02/14 00:20:58;;;;;;;10.50;7.78;;;;;;;;;;4997142;28;20114;-85
2024/02/14 00:23:25;;;;;;;14.48;8.27;;;;;;;;;;4990277;28;20046;-84
2024/02/14 00:25:52;;;;;;;10.63;8.25;;;;;;;;;;4993385;28;20133;-85
2024/02/14 00:28:19;;;;;;;13.40;8.70;;;;;;;;;;4993377;28;20054;-85
2024/02/14 00:30:46;;;;;;;17.73;8.02;;;;;;;;;;5011333;28;20045;-87
2024/02/14 00:33:14;;;;;;;12.07;8.30;;;;;;;;;;4992984;28;20407;-87
2024/02/14 00:35:42;;;;;;;8.73;6.90;;;;;;;;;;5009287;28;20050;-87
2024/02/14 00:38:09;;;;;;;13.02;8.82;;;;;;;;;;5004211;28;20046;-87
2024/02/14 00:40:36;;;;;;;8.30;6.70;;;;;;;;;;4995283;28;20046;-87
2024/02/14 00:43:04;;;;;;;13.43;8.00;;;;;;;;;;4991744;28;20050;-87
2024/02/14 00:45:31;;;;;;;12.30;8.02;;;;;;;;;;4998474;28;20061;-87
2024/02/14 00:47:58;;;;;;;12.27;7.65;;;;;;;;;;5011984;28;20050;-87
2024/02/14 00:50:26;;;;;;;12.32;9.00;;;;;;;;;;5006528;28;20074;-87
2024/02/14 00:52:53;;;;;;;10.95;7.57;;;;;;;;;;5011247;28;20077;-87
2024/02/14 00:55:20;;;;;;;11.98;7.32;;;;;;;;;;4995419;28;20050;-87
2024/02/14 00:57:48;;;;;;;11.27;7.25;;;;;;;;;;4996766;28;20458;-87
2024/02/14 01:00:17;;;;;;;11.90;6.65;;;;;;;;;;4996588;28;20054;-87
2024/02/14 01:02:44;;;;;;;8.02;6.55;;;;;;;;;;4994817;28;20510;-87
2024/02/14 01:05:12;;;;;;;12.82;6.05;;;;;;;;;;4996963;28;20046;-86
2024/02/14 01:07:39;;;;;;;11.05;6.10;;;;;;;;;;4995120;28;20041;-86
2024/02/14 01:10:07;;;;;;;12.05;6.68;;;;;;;;;;4990986;28;20496;-86
2024/02/14 01:12:34;;;;;;;9.63;5.78;;;;;;;;;;4990824;28;20046;-87
2024/02/14 01:15:02;;;;;;;11.23;5.45;;;;;;;;;;5011248;28;20054;-87
2024/02/14 01:17:30;;;;;;;10.88;5.95;;;;;;;;;;4995006;28;20069;-87
2024/02/14 01:19:58;;;;;;;7.82;5.65;;;;;;;;;;4992545;28;20106;-87
2024/02/14 01:22:25;;;;;;;9.13;6.05;;;;;;;;;;5009340;28;20050;-87
2024/02/14 01:24:52;;;;;;;8.07;5.38;;;;;;;;;;4992606;28;20488;-87
2024/02/14 01:27:22;;;;;;;7.38;5.55;;;;;;;;;;5009847;28;20050;-86
2024/02/14 01:29:49;;;;;;;7.72;5.38;;;;;;;;;;5008737;28;20049;-87
2024/02/14 01:32:17;;;;;;;9.45;5.43;;;;;;;;;;4990819;28;20077;-87
2024/02/14 01:34:44;;;;;;;10.73;6.07;;;;;;;;;;5008905;28;20077;-86
2024/02/14 01:37:11;;;;;;;5.88;5.25;;;;;;;;;;4994185;28;20495;-87
2024/02/14 01:39:39;;;;;;;7.90;5.15;;;;;;;;;;5005471;28;20050;-86
2024/02/14 01:42:07;;;;;;;9.57;5.20;;;;;;;;;;5008747;28;20042;-85
2024/02/14 01:44:36;;;;;;;10.98;5.45;;;;;;;;;;5010295;28;20069;-85
2024/02/14 01:47:05;;;;;;;9.05;5.32;;;;;;;;;;5002772;28;20412;-88
2024/02/14 01:49:34;;;;;;;10.45;5.65;;;;;;;;;;5010199;28;20054;-87
2024/02/14 01:52:03;;;;;;;7.90;5.45;;;;;;;;;;4994935;28;20542;-88
2024/02/14 01:54:31;;;;;;;7.25;5.60;;;;;;;;;;5004914;28;20108;-88
2024/02/14 01:56:58;;;;;;;6.90;4.97;;;;;;;;;;4995004;28;20069;-88
2024/02/14 01:59:26;;;;;;;9.57;6.03;;;;;;;;;;5011514;28;20086;-86
2024/02/14 02:01:54;;;;;;;6.88;4.95;;;;;;;;;;4996211;28;20073;-88
2024/02/14 02:04:21;;;;;;;7.47;5.18;;;;;;;;;;5007004;28;20097;-88
2024/02/14 02:06:49;;;;;;;10.65;5.93;;;;;;;;;;4996552;28;20104;-88
2024/02/14 02:09:16;;;;;;;8.18;5.20;;;;;;;;;;5007264;28;20046;-87
2024/02/14 02:11:48;;;;;;;7.72;4.85;;;;;;;;;;5012888;28;20128;-87
2024/02/14 02:14:16;;;;;;;9.73;5.28;;;;;;;;;;4994141;28;20054;-87
2024/02/14 02:16:43;;;;;;;8.13;4.93;;;;;;;;;;5001960;28;20053;-87
2024/02/14 02:19:11;;;;;;;7.18;4.85;;;;;;;;;;4997079;28;20077;-87
2024/02/14 02:21:39;;;;;;;5.20;4.63;;;;;;;;;;5014795;28;20495;-88
2024/02/14 02:24:06;;;;;;;5.68;4.22;;;;;;;;;;5012912;28;20049;-86
2024/02/14 02:26:34;;;;;;;6.07;4.80;;;;;;;;;;4996566;28;20050;-87
2024/02/14 02:29:01;;;;;;;7.78;5.47;;;;;;;;;;4996705;28;20060;-87
2024/02/14 02:31:29;;;;;;;5.05;4.55;;;;;;;;;;5011728;28;20050;-88
2024/02/14 02:33:57;;;;;;;8.23;4.65;;;;;;;;;;4994830;28;20414;-86
2024/02/14 02:36:25;;;;;;;9.32;4.20;;;;;;;;;;4999932;28;20050;-88
2024/02/14 02:38:52;;;;;;;6.85;5.00;;;;;;;;;;5003283;28;20054;-87
2024/02/14 02:41:20;;;;;;;5.40;4.18;;;;;;;;;;5014593;28;20467;-88
2024/02/14 02:43:50;;;;;;;7.88;5.53;;;;;;;;;;5013717;28;20061;-87
2024/02/14 02:46:17;;;;;;;10.05;4.95;;;;;;;;;;4993367;28;20053;-87
2024/02/14 02:48:46;;;;;;;5.45;4.05;;;;;;;;;;4993769;28;20046;-87
2024/02/14 02:51:16;;;;;;;6.25;4.30;;;;;;;;;;4996100;28;20050;-87
2024/02/14 02:53:43;;;;;;;6.32;4.18;;;;;;;;;;4994525;28;20050;-86
2024/02/14 02:56:12;;;;;;;6.47;4.57;;;;;;;;;;4993730;28;20053;-86
2024/02/14 02:58:39;;;;;;;4.93;4.28;;;;;;;;;;4994827;28;20076;-86
2024/02/14 03:01:11;;;;;;;7.35;3.92;;;;;;;;;;4997390;28;20092;-88
2024/02/14 03:03:39;;;;;;;5.47;4.43;;;;;;;;;;5013102;28;20080;-88
2024/02/14 03:06:06;;;;;;;5.35;4.00;;;;;;;;;;5009940;28;20058;-87
2024/02/14 03:08:34;;;;;;;7.32;5.00;;;;;;;;;;5007118;28;20058;-87
2024/02/14 03:11:05;;;;;;;5.22;4.47;;;;;;;;;;4993354;28;20065;-87
2024/02/14 03:13:33;;;;;;;10.25;5.00;;;;;;;;;;4992826;28;20061;-87
2024/02/14 03:16:01;;;;;;;7.22;4.72;;;;;;;;;;4994945;28;20054;-87
2024/02/14 03:18:28;;;;;;;8.35;4.95;;;;;;;;;;5012765;28;20050;-88
2024/02/14 03:20:55;;;;;;;6.18;4.40;;;;;;;;;;5001767;28;20064;-88
2024/02/14 03:23:23;;;;;;;6.28;4.40;;;;;;;;;;4992137;28;20082;-87
2024/02/14 03:25:51;;;;;;;7.53;4.75;;;;;;;;;;4993146;28;20137;-87
2024/02/14 03:28:19;;;;;;;5.32;4.28;;;;;;;;;;5003979;28;20046;-87
2024/02/14 03:30:47;;;;;;;5.32;4.43;;;;;;;;;;5012038;28;20056;-87
2024/02/14 03:33:15;;;;;;;5.50;4.97;;;;;;;;;;5011733;28;20056;-88
2024/02/14 03:35:42;;;;;;;8.68;4.38;;;;;;;;;;4995462;28;20388;-87
2024/02/14 03:38:10;;;;;;;9.85;4.88;;;;;;;;;;4992748;28;20057;-88
2024/02/14 03:40:38;;;;;;;7.13;5.03;;;;;;;;;;4992177;28;20065;-86
2024/02/14 03:43:05;;;;;;;8.77;5.20;;;;;;;;;;4999956;28;20114;-88
2024/02/14 03:45:32;;;;;;;7.00;5.20;;;;;;;;;;4993115;28;20046;-88
2024/02/14 03:48:00;;;;;;;13.88;4.50;;;;;;;;;;4994196;28;20092;-88
2024/02/14 03:50:27;;;;;;;7.28;4.50;;;;;;;;;;5006959;28;20046;-87
2024/02/14 03:52:55;;;;;;;5.97;4.07;;;;;;;;;;5013203;28;20054;-86
2024/02/14 03:55:23;;;;;;;6.85;3.58;;;;;;;;;;5007056;28;20144;-88
2024/02/14 03:57:50;;;;;;;5.93;4.18;;;;;;;;;;5008621;28;20137;-87
2024/02/14 04:00:18;;;;;;;4.95;3.65;;;;;;;;;;5015307;28;20050;-88
2024/02/14 04:02:48;;;;;;;6.07;3.45;;;;;;;;;;5012283;28;20491;-85
2024/02/14 04:05:16;;;;;;;5.13;2.30;;;;;;;;;;5011728;28;20106;-85
2024/02/14 04:07:48;;;;;;;3.65;2.40;;;;;;;;;;4990805;28;20046;-85
2024/02/14 04:10:16;;;;;;;3.23;1.97;;;;;;;;;;4994630;28;20049;-85
2024/02/14 04:12:43;;;;;;;4.53;1.70;;;;;;;;;;4994659;28;20289;-83
2024/02/14 04:15:10;;;;;;;2.55;2.13;;;;;;;;;;5006173;28;20054;-84
2024/02/14 04:17:38;;;;;;;4.63;1.63;;;;;;;;;;5006128;28;20156;-82
2024/02/14 04:20:06;;;;;;;2.70;1.63;;;;;;;;;;5002742;28;20057;-83
2024/02/14 04:22:33;;;;;;;5.57;1.50;;;;;;;;;;5011016;28;20408;-83
2024/02/14 04:25:00;;;;;;;4.32;1.77;;;;;;;;;;5001638;28;20050;-84
2024/02/14 04:27:28;;;;;;;2.78;1.40;;;;;;;;;;5007816;28;20111;-85
2024/02/14 04:29:56;;;;;;;3.45;1.38;;;;;;;;;;4993526;28;20108;-84
2024/02/14 04:32:24;;;;;;;1.52;1.40;;;;;;;;;;4991984;28;20061;-86
2024/02/14 04:34:52;;;;;;;2.38;1.48;;;;;;;;;;4993204;28;20058;-87
2024/02/14 04:37:20;;;;;;;6.45;1.90;;;;;;;;;;5012569;28;20060;-84
2024/02/14 04:39:47;;;;;;;3.33;1.20;;;;;;;;;;5009895;28;20057;-86
2024/02/14 04:42:15;;;;;;;4.30;1.48;;;;;;;;;;4988248;28;20526;-84
2024/02/14 04:44:42;;;;;;;6.25;1.45;;;;;;;;;;4995385;28;20494;-82
2024/02/14 04:47:10;;;;;;;3.03;1.38;;;;;;;;;;5009578;28;20053;-86
2024/02/14 04:49:37;;;;;;;2.28;1.38;;;;;;;;;;4999472;28;20058;-84
2024/02/14 04:52:05;;;;;;;1.80;1.33;;;;;;;;;;4990551;28;20518;-86
2024/02/14 04:54:32;;;;;;;2.38;1.90;;;;;;;;;;5007984;28;20081;-86
2024/02/14 04:56:59;;;;;;;1.75;1.65;;;;;;;;;;4993022;28;20455;-85
2024/02/14 04:59:29;;;;;;;3.63;1.50;;;;;;;;;;5009416;28;20054;-86
2024/02/14 05:01:57;;;;;;;3.63;1.50;;;;;;;;;;4997044;28;20053;-85
2024/02/14 05:04:24;;;;;;;1.65;1.48;;;;;;;;;;4986691;28;20077;-85
2024/02/14 05:06:52;;;;;;;2.45;1.67;;;;;;;;;;4989093;28;20047;-87
2024/02/14 05:09:25;;;;;;;1.70;1.60;;;;;;;;;;4991761;28;20056;-84
2024/02/14 05:11:52;;;;;;;2.78;1.30;;;;;;;;;;4990292;28;20054;-84
2024/02/14 05:14:20;;;;;;;2.33;1.30;;;;;;;;;;4992515;28;20056;-82
2024/02/14 05:16:47;;;;;;;3.67;1.48;;;;;;;;;;4982332;28;20055;-81
2024/02/14 05:19:14;;;;;;;2.33;1.40;;;;;;;;;;4990372;28;20530;-82
2024/02/14 05:21:42;;;;;;;3.13;1.70;;;;;;;;;;4982233;28;20467;-82
2024/02/14 05:24:09;;;;;;;2.58;1.40;;;;;;;;;;4991106;28;20454;-84
2024/02/14 05:26:37;;;;;;;3.70;1.40;;;;;;;;;;4994473;28;20129;-83
2024/02/14 05:29:05;;;;;;;2.75;1.45;;;;;;;;;;4993339;28;20050;-83
2024/02/14 05:31:45;;;;;;;1.88;1.38;;;;;;;;;;4993739;28;20427;-82
2024/02/14 05:34:13;;;;;;;3.80;1.50;;;;;;;;;;4986652;28;20641;-83
2024/02/14 05:36:42;;;;;;;2.38;1.17;;;;;;;;;;5002222;28;20046;-83
2024/02/14 05:39:10;;;;;;;3.35;1.40;;;;;;;;;;5002248;28;20077;-82
2024/02/14 05:41:37;;;;;;;3.15;1.20;;;;;;;;;;4992559;28;20046;-84
2024/02/14 05:44:05;;;;;;;2.45;1.40;;;;;;;;;;4984589;28;20054;-82
2024/02/14 05:46:32;;;;;;;2.58;1.13;;;;;;;;;;4992536;28;20057;-82
2024/02/14 05:48:59;;;;;;;2.28;1.30;;;;;;;;;;4988564;28;20527;-84
2024/02/14 05:51:27;;;;;;;3.05;1.30;;;;;;;;;;4999925;28;20137;-83
2024/02/14 05:53:54;;;;;;;3.70;1.55;;;;;;;;;;4988430;28;20050;-82
2024/02/14 05:56:22;;;;;;;1.67;1.40;;;;;;;;;;4986552;28;20110;-82
2024/02/14 05:58:49;;;;;;;3.17;1.35;;;;;;;;;;4986052;28;20105;-81
2024/02/14 06:01:17;;;;;;;2.75;1.40;;;;;;;;;;4991099;28;20070;-82
2024/02/14 06:03:44;;;;;;;5.25;1.63;;;;;;;;;;4988396;28;20057;-83
2024/02/14 06:06:11;;;;;;;1.90;1.45;;;;;;;;;;4996702;28;20042;-83
2024/02/14 06:08:39;;;;;;;3.83;1.58;;;;;;;;;;4989232;28;20121;-82
2024/02/14 06:11:06;;;;;;;1.98;1.63;;;;;;;;;;4988579;28;20042;-82
2024/02/14 06:13:35;;;;;;;2.38;1.20;;;;;;;;;;4989924;28;20056;-83
2024/02/14 06:16:03;;;;;;;1.30;1.20;;;;;;;;;;5001978;28;20137;-83
2024/02/14 06:18:30;;;;;;;2.97;1.40;;;;;;;;;;4985471;28;20061;-84
2024/02/14 06:20:57;;;;;;;2.53;1.50;;;;;;;;;;4987243;28;20051;-83
2024/02/14 06:23:25;;;;;;;3.80;1.85;;;;;;;;;;4982879;28;20066;-83
2024/02/14 06:25:53;;;;;;;2.00;1.60;;;;;;;;;;4992644;28;20524;-83
2024/02/14 06:28:20;;;;;;;4.20;1.60;;;;;;;;;;4998111;28;20466;-82
2024/02/14 06:30:48;;;;;;;3.17;1.27;;;;;;;;;;4986863;28;20050;-82
2024/02/14 06:33:15;;;;;;;5.45;2.05;;;;;;;;;;4984763;28;20086;-84
2024/02/14 06:35:43;;;;;;;5.93;3.17;;;;;;;;;;4992301;28;20061;-84
2024/02/14 06:38:10;;;;;;;2.60;1.88;;;;;;;;;;4980695;28;20514;-86
2024/02/14 06:40:38;;;;;;;3.80;2.03;;;;;;;;;;5003689;28;20057;-85
2024/02/14 06:43:06;;;;;;;5.07;1.50;;;;;;;;;;4987848;28;20499;-86
2024/02/14 06:45:33;;;;;;;4.15;1.33;;;;;;;;;;4981779;28;20070;-86
2024/02/14 06:48:01;;;;;;;3.80;1.70;;;;;;;;;;5004821;28;20046;-85
2024/02/14 06:50:29;;;;;;;3.90;1.40;;;;;;;;;;5007417;28;20080;-85
2024/02/14 06:53:00;;;;;;;2.22;1.15;;;;;;;;;;4988626;28;20046;-85
2024/02/14 06:55:30;;;;;;;3.58;1.35;;;;;;;;;;5004716;28;20050;-83
2024/02/14 06:57:57;;;;;;;2.15;1.50;;;;;;;;;;5007869;28;20050;-87
2024/02/14 07:00:24;;;;;;;4.63;1.63;;;;;;;;;;4990839;28;20411;-86
2024/02/14 07:02:52;;;;;;;3.72;1.70;;;;;;;;;;4997421;28;20046;-87
2024/02/14 07:05:19;;;;;;;2.97;2.10;;;;;;;;;;4992787;28;20042;-87
2024/02/14 07:07:46;;;;;;;2.75;1.95;;;;;;;;;;5016478;23;20104;-92
2024/02/14 07:10:13;;;;;;;4.10;1.60;;;;;;;;;;5003643;28;20056;-92
2024/02/14 07:12:41;;;;;;;1.50;1.40;;;;;;;;;;5006831;28;20046;-93
2024/02/14 07:15:08;;;;;;;4.00;1.85;;;;;;;;;;4993680;28;20065;-94
2024/02/14 07:17:36;;;;;;;5.28;1.95;;;;;;;;;;5001714;28;20471;-92
2024/02/14 07:20:04;;;;;;;1.90;1.38;;;;;;;;;;5001786;28;20055;-91
2024/02/14 07:22:31;;;;;;;11.13;1.85;;;;;;;;;;5002554;28;20047;-92
2024/02/14 07:24:58;;;;;;;4.43;1.75;;;;;;;;;;5002197;28;20054;-92
2024/02/14 07:27:27;;;;;;;3.33;1.58;;;;;;;;;;5000973;28;20049;-90
2024/02/14 07:29:55;;;;;;;4.70;1.95;;;;;;;;;;5001915;28;20491;-90
2024/02/14 07:32:22;;;;;;;3.13;1.90;;;;;;;;;;5002066;28;20141;-92
2024/02/14 07:34:50;;;;;;;1.85;1.70;;;;;;;;;;5001485;28;20137;-90
2024/02/14 07:37:19;;;;;;;4.43;1.83;;;;;;;;;;5002618;28;20054;-92
2024/02/14 07:39:47;;;;;;;3.15;1.55;;;;;;;;;;5002508;28;20054;-92
2024/02/14 07:42:15;;;;;;;4.97;1.92;;;;;;;;;;5001383;28;20093;-94
2024/02/14 07:44:42;;;;;;;3.50;1.60;;;;;;;;;;4998294;28;20057;-93
2024/02/14 07:47:10;;;;;;;2.05;1.85;;;;;;;;;;5026809;28;20074;-91
2024/02/14 07:49:37;;;;;;;5.18;1.70;;;;;;;;;;5012908;28;20462;-91
2024/02/14 07:52:05;;;;;;;4.55;2.22;;;;;;;;;;5001708;28;20517;-92
2024/02/14 07:54:32;;;;;;;3.05;1.80;;;;;;;;;;5006121;28;20074;-92
2024/02/14 07:56:59;;;;;;;4.63;1.80;;;;;;;;;;5009747;28;20056;-94
2024/02/14 07:59:27;;;;;;;2.75;1.80;;;;;;;;;;5004235;28;20058;-92
2024/02/14 08:01:57;;;;;;;6.10;2.13;;;;;;;;;;5011542;28;20399;-93
2024/02/14 08:04:24;;;;;;;8.32;2.70;;;;;;;;;;5006363;28;20065;-91
2024/02/14 08:06:52;;;;;;;4.32;2.25;;;;;;;;;;5010703;28;20511;-92
2024/02/14 08:09:19;;;;;;;5.80;1.90;;;;;;;;;;5007859;28;20081;-94
2024/02/14 08:11:47;;;;;;;6.45;2.28;;;;;;;;;;5001376;28;20096;-93
2024/02/14 08:14:14;;;;;;;3.75;2.15;;;;;;;;;;5007621;28;20050;-92
2024/02/14 08:16:43;;;;;;;3.35;1.83;;;;;;;;;;5005402;28;20080;-92
2024/02/14 08:19:10;;;;;;;4.05;2.03;;;;;;;;;;5002971;28;20051;-92
2024/02/14 08:21:37;;;;;;;2.28;1.75;;;;;;;;;;5009102;28;20457;-93
2024/02/14 08:24:05;;;;;;;7.75;2.10;;;;;;;;;;5005814;28;20473;-93
2024/02/14 08:26:32;;;;;;;5.68;2.30;;;;;;;;;;5006360;28;20447;-94
2024/02/14 08:29:00;;;;;;;4.40;1.92;;;;;;;;;;5001183;28;20070;-89
2024/02/14 08:31:27;;;;;;;5.38;2.20;;;;;;;;;;5002603;28;20470;-90
2024/02/14 08:33:55;;;;;;;3.75;1.95;;;;;;;;;;5012279;28;20050;-90
2024/02/14 08:36:24;;;;;;;3.20;2.13;;;;;;;;;;5013539;28;20046;-91
2024/02/14 08:38:51;;;;;;;7.65;2.33;;;;;;;;;;5008164;28;20124;-90
2024/02/14 08:41:18;;;;;;;6.75;1.95;;;;;;;;;;5012606;28;20050;-90
2024/02/14 08:43:46;;;;;;;4.85;1.98;;;;;;;;;;5005695;28;20057;-93
2024/02/14 08:46:14;;;;;;;2.85;1.58;;;;;;;;;;5004744;28;20051;-92
2024/02/14 08:48:45;;;;;;;4.55;2.13;;;;;;;;;;5003867;28;20104;-91
2024/02/14 08:51:15;;;;;;;2.80;1.73;;;;;;;;;;5000743;28;20073;-94
2024/02/14 08:53:44;;;;;;;4.20;1.60;;;;;;;;;;5007503;28;20054;-91
2024/02/14 08:56:12;;;;;;;1.40;1.30;;;;;;;;;;5011682;28;20054;-92
2024/02/14 08:58:40;;;;;;;2.45;1.63;;;;;;;;;;5012066;28;20058;-93
2024/02/14 09:01:08;;;;;;;2.33;1.45;;;;;;;;;;5030699;28;20096;-92
2024/02/14 09:03:47;;;;;;;2.10;1.33;;;;;;;;;;5020626;28;20491;-94
2024/02/14 09:06:18;;;;;;;1.77;1.17;;;;;;;;;;5025063;28;20116;-92
2024/02/14 09:08:46;;;;;;;1.42;1.30;;;;;;;;;;5007203;28;20070;-93
2024/02/14 09:11:13;;;;;;;1.23;1.23;;;;;;;;;;5011087;28;20050;-92
2024/02/14 09:13:41;;;;;;;4.40;1.85;;;;;;;;;;5003060;28;20061;-89
2024/02/14 09:16:09;;;;;;;4.43;1.75;;;;;;;;;;5004229;28;20132;-89
2024/02/14 09:18:38;;;;;;;3.47;1.75;;;;;;;;;;5004370;28;20105;-91
2024/02/14 09:21:06;;;;;;;4.50;1.70;;;;;;;;;;5003994;28;20058;-94
2024/02/14 09:23:34;;;;;;;3.08;1.52;;;;;;;;;;5003393;28;20054;-91
2024/02/14 09:26:01;;;;;;;1.55;1.30;;;;;;;;;;5002852;28;20076;-90
2024/02/14 09:28:29;;;;;;;3.53;1.70;;;;;;;;;;5003126;28;20077;-90
2024/02/14 09:30:57;;;;;;;3.42;2.00;;;;;;;;;;5004607;28;20478;-89
2024/02/14 09:33:24;;;;;;;9.65;2.58;;;;;;;;;;5003767;28;20061;-91
2024/02/14 09:35:52;;;;;;;3.22;1.60;;;;;;;;;;5012781;28;20081;-89
2024/02/14 09:38:20;;;;;;;2.72;1.60;;;;;;;;;;5009529;28;20046;-89
2024/02/14 09:40:48;;;;;;;2.53;1.60;;;;;;;;;;5008961;28;20138;-90
2024/02/14 09:43:21;;;;;;;3.63;1.83;;;;;;;;;;5003325;28;20096;-90
2024/02/14 09:45:52;;;;;;;1.50;1.30;;;;;;;;;;5003513;28;20058;-89
2024/02/14 09:48:20;;;;;;;2.22;1.40;;;;;;;;;;5008451;28;20348;-90
2024/02/14 09:50:49;;;;;;;1.20;1.08;;;;;;;;;;5006063;28;20070;-89
2024/02/14 09:53:17;;;;;;;2.35;1.40;;;;;;;;;;5009501;28;20058;-89
2024/02/14 09:55:46;;;;;;;4.50;1.50;;;;;;;;;;5003072;28;20042;-89
2024/02/14 09:58:13;;;;;;;3.25;1.10;;;;;;;;;;5009844;28;20061;-91
2024/02/14 10:00:41;;;;;;;6.88;1.45;;;;;;;;;;5007282;28;20046;-90
2024/02/14 10:03:09;;;;;;;4.05;1.40;;;;;;;;;;5002771;28;20081;-90
2024/02/14 10:05:36;;;;;;;8.02;2.05;;;;;;;;;;5003164;28;20046;-91
2024/02/14 10:08:04;;;;;;;3.30;1.92;;;;;;;;;;5002162;28;20086;-92
2024/02/14 10:10:37;;;;;;;5.60;1.60;;;;;;;;;;5002678;28;20042;-89
2024/02/14 10:13:07;;;;;;;9.00;1.65;;;;;;;;;;5002454;28;20046;-91
2024/02/14 10:15:36;;;;;;;3.33;1.40;;;;;;;;;;5019747;28;20034;-92
2024/02/14 10:18:03;;;;;;;2.10;1.20;;;;;;;;;;5010436;28;20042;-91
2024/02/14 10:20:33;;;;;;;2.80;1.55;;;;;;;;;;5002758;28;20054;-90
2024/02/14 10:23:04;;;;;;;3.53;1.50;;;;;;;;;;5013281;28;20066;-90
2024/02/14 10:25:32;;;;;;;2.75;1.25;;;;;;;;;;5006896;28;20081;-90
2024/02/14 10:28:04;;;;;;;10.35;2.88;;;;;;;;;;5001997;28;20047;-90
2024/02/14 10:30:31;;;;;;;2.72;2.45;;;;;;;;;;5002169;28;20066;-90
2024/02/14 10:32:59;;;;;;;3.33;1.50;;;;;;;;;;5001893;28;20050;-89
2024/02/14 10:35:37;;;;;;;2.00;1.45;;;;;;;;;;5003118;28;20058;-90
2024/02/14 10:38:05;;;;;;;2.92;2.00;;;;;;;;;;5002331;28;20120;-92
2024/02/14 10:40:33;;;;;;;3.80;1.80;;;;;;;;;;5001987;28;20062;-93
2024/02/14 10:43:01;;;;;;;3.78;1.65;;;;;;;;;;5011991;28;20097;-92
2024/02/14 10:45:29;;;;;;;2.80;1.65;;;;;;;;;;5007380;28;20105;-94
2024/02/14 10:47:57;;;;;;;2.03;1.45;;;;;;;;;;5001534;28;20054;-89
2024/02/14 10:50:28;;;;;;;1.90;1.73;;;;;;;;;;5002032;28;20050;-91
2024/02/14 10:52:58;;;;;;;3.25;2.10;;;;;;;;;;5003968;28;20149;-86
2024/02/14 10:55:27;;;;;;;2.67;1.98;;;;;;;;;;5013761;28;20108;-92
2024/02/14 10:57:54;;;;;;;3.33;2.20;;;;;;;;;;5004950;28;20450;-90
2024/02/14 11:00:21;;;;;;;3.08;2.40;;;;;;;;;;5007853;28;20060;-90
2024/02/14 11:02:49;;;;;;;4.35;2.40;;;;;;;;;;4999287;28;20443;-90
2024/02/14 11:05:17;;;;;;;2.53;2.20;;;;;;;;;;5002046;28;20054;-92
2024/02/14 11:07:45;;;;;;;2.70;2.20;;;;;;;;;;5001514;28;20517;-91
2024/02/14 11:10:17;;;;;;;3.78;2.45;;;;;;;;;;5009240;28;20046;-91
2024/02/14 11:12:45;;;;;;;5.28;2.47;;;;;;;;;;5001606;28;20060;-90
2024/02/14 11:15:20;;;;;;;3.45;2.38;;;;;;;;;;5001351;28;20054;-91
2024/02/14 11:17:49;;;;;;;5.97;2.20;;;;;;;;;;5001240;28;20054;-91
2024/02/14 11:20:21;;;;;;;2.92;2.13;;;;;;;;;;5005455;28;20136;-90
2024/02/14 11:22:59;;;;;;;2.38;1.90;;;;;;;;;;5004920;28;20137;-91
2024/02/14 11:25:31;;;;;;;2.60;2.40;;;;;;;;;;5007308;28;20058;-91
2024/02/14 11:27:59;;;;;;;2.97;2.40;;;;;;;;;;5001482;28;20116;-89
2024/02/14 11:30:30;;;;;;;2.63;2.22;;;;;;;;;;5026629;28;20046;-89
2024/02/14 11:33:17;;;;;;;2.78;2.10;;;;;;;;;;5010501;28;20050;-92
2024/02/14 11:35:47;;;;;;;1.73;1.63;;;;;;;;;;5005786;28;20057;-94
2024/02/14 11:38:16;;;;;;;4.50;1.85;;;;;;;;;;5014375;28;20049;-93
2024/02/14 11:40:44;;;;;;;2.13;1.92;;;;;;;;;;5014638;28;20053;-91
2024/02/14 11:43:18;;;;;;;5.53;2.10;;;;;;;;;;5014179;28;20153;-92
2024/02/14 11:45:46;;;;;;;3.22;1.70;;;;;;;;;;5005820;28;20078;-92
2024/02/14 11:48:13;;;;;;;3.55;2.03;;;;;;;;;;5012427;28;20104;-91
2024/02/14 11:50:42;;;;;;;3.05;2.38;;;;;;;;;;5005042;28;20077;-93
2024/02/14 11:53:11;;;;;;;3.00;1.52;;;;;;;;;;5009254;28;20625;-92
2024/02/14 11:55:39;;;;;;;1.85;1.75;;;;;;;;;;5001631;28;20046;-92
2024/02/14 11:58:08;;;;;;;2.17;1.85;;;;;;;;;;5001546;28;20124;-92
2024/02/14 12:00:37;;;;;;;1.75;1.42;;;;;;;;;;5008796;28;20537;-93
2024/02/14 12:03:07;;;;;;;1.95;1.75;;;;;;;;;;5004720;28;20546;-92
2024/02/14 12:05:37;;;;;;;8.88;1.83;;;;;;;;;;5009779;28;20487;-92
2024/02/14 12:08:07;;;;;;;1.42;1.33;;;;;;;;;;5011901;28;20049;-93
2024/02/14 12:10:36;;;;;;;3.60;1.42;;;;;;;;;;5005883;28;20411;-92
2024/02/14 12:13:11;;;;;;;2.67;1.75;;;;;;;;;;5011185;28;20506;-94
2024/02/14 12:15:39;;;;;;;4.90;1.70;;;;;;;;;;5005208;28;20108;-92
2024/02/14 12:18:07;;;;;;;2.35;1.63;;;;;;;;;;5004569;28;20105;-92
2024/02/14 12:20:34;;;;;;;1.85;1.75;;;;;;;;;;5004583;28;20061;-92
2024/02/14 12:23:02;;;;;;;2.97;1.58;;;;;;;;;;5004191;28;20046;-89
2024/02/14 12:25:30;;;;;;;3.85;1.73;;;;;;;;;;5004551;28;20050;-89
2024/02/14 12:27:58;;;;;;;3.05;1.42;;;;;;;;;;5012537;28;20049;-91
2024/02/14 12:30:46;;;;;;;2.72;1.88;;;;;;;;;;5007390;28;20101;-92
2024/02/14 12:33:14;;;;;;;1.50;1.40;;;;;;;;;;5017426;28;20069;-93
2024/02/14 12:35:43;;;;;;;5.15;1.50;;;;;;;;;;5007922;28;20101;-92
2024/02/14 12:38:12;;;;;;;2.15;1.20;;;;;;;;;;5024604;28;20061;-94
2024/02/14 12:40:41;;;;;;;2.00;1.77;;;;;;;;;;5008014;28;20047;-92
2024/02/14 12:43:10;;;;;;;1.63;1.42;;;;;;;;;;5011746;28;20073;-93
2024/02/14 12:45:38;;;;;;;5.85;1.65;;;;;;;;;;5027287;28;20080;-92
2024/02/14 12:48:06;;;;;;;2.70;1.63;;;;;;;;;;5013929;28;20054;-90
2024/02/14 12:50:35;;;;;;;3.67;1.77;;;;;;;;;;5011803;28;20524;-91
2024/02/14 12:53:02;;;;;;;3.55;1.90;;;;;;;;;;5007791;28;20053;-93
2024/02/14 12:55:30;;;;;;;3.67;1.80;;;;;;;;;;5016539;28;20041;-94
2024/02/14 12:57:57;;;;;;;2.80;1.73;;;;;;;;;;5007916;28;20058;-93
2024/02/14 13:00:25;;;;;;;1.58;1.48;;;;;;;;;;5009839;28;20051;-92
2024/02/14 13:02:53;;;;;;;2.25;1.58;;;;;;;;;;5010353;28;20070;-92
2024/02/14 13:05:21;;;;;;;5.35;1.73;;;;;;;;;;5003854;28;20050;-93
2024/02/14 13:07:48;;;;;;;3.28;1.65;;;;;;;;;;5003161;28;20062;-94
2024/02/14 13:10:15;;;;;;;2.10;1.90;;;;;;;;;;5003838;28;20458;-92
2024/02/14 13:12:45;;;;;;;9.55;2.45;;;;;;;;;;5003312;28;20073;-90
2024/02/14 13:15:12;;;;;;;2.25;1.75;;;;;;;;;;5003588;28;20105;-92
2024/02/14 13:17:39;;;;;;;2.08;1.90;;;;;;;;;;5000143;28;20050;-91
2024/02/14 13:20:08;;;;;;;5.88;2.03;;;;;;;;;;5004129;28;20054;-94
2024/02/14 13:22:35;;;;;;;3.83;2.10;;;;;;;;;;5004175;28;20046;-93
2024/02/14 13:25:04;;;;;;;2.63;2.03;;;;;;;;;;5013739;28;20135;-94
2024/02/14 13:27:33;;;;;;;2.40;2.20;;;;;;;;;;5008974;28;20052;-92
2024/02/14 13:30:00;;;;;;;2.88;2.33;;;;;;;;;;5012834;28;20049;-90
2024/02/14 13:32:28;;;;;;;4.03;2.80;;;;;;;;;;5000565;28;20438;-93
2024/02/14 13:34:56;;;;;;;3.50;2.85;;;;;;;;;;5004704;28;20505;-91
2024/02/14 13:37:23;;;;;;;3.20;2.58;;;;;;;;;;5015777;28;20053;-93
2024/02/14 13:39:51;;;;;;;5.20;2.58;;;;;;;;;;5007349;28;20061;-93
2024/02/14 13:42:19;;;;;;;2.85;2.63;;;;;;;;;;5012132;28;20050;-93
2024/02/14 13:44:46;;;;;;;4.50;2.78;;;;;;;;;;5000597;28;20511;-91
2024/02/14 13:47:13;;;;;;;4.53;2.60;;;;;;;;;;5003672;28;20046;-93
2024/02/14 13:49:41;;;;;;;5.10;2.67;;;;;;;;;;5003226;28;20487;-94
2024/02/14 13:52:08;;;;;;;3.42;2.72;;;;;;;;;;5003661;28;20137;-92
2024/02/14 13:54:36;;;;;;;6.05;2.60;;;;;;;;;;5003118;28;20054;-91
2024/02/14 13:57:03;;;;;;;3.65;2.60;;;;;;;;;;5005737;28;20058;-93
2024/02/14 13:59:32;;;;;;;5.93;3.03;;;;;;;;;;5023212;28;20058;-92
2024/02/14 14:01:59;;;;;;;3.47;2.20;;;;;;;;;;5009195;28;20128;-95
2024/02/14 14:04:26;;;;;;;2.50;2.30;;;;;;;;;;5014490;28;20045;-94
2024/02/14 14:06:55;;;;;;;4.60;2.65;;;;;;;;;;5006122;28;20062;-94
2024/02/14 14:09:22;;;;;;;4.47;2.50;;;;;;;;;;5009214;28;20113;-94
2024/02/14 14:11:51;;;;;;;5.15;2.92;;;;;;;;;;5004017;28;20055;-94
2024/02/14 14:14:22;;;;;;;6.32;2.53;;;;;;;;;;5009165;28;20142;-94
2024/02/14 14:16:52;;;;;;;3.20;2.75;;;;;;;;;;5002517;28;20054;-92
2024/02/14 14:19:22;;;;;;;3.10;2.10;;;;;;;;;;5002242;28;20058;-93
2024/02/14 14:21:49;;;;;;;6.75;2.28;;;;;;;;;;5008906;28;20487;-92
2024/02/14 14:24:16;;;;;;;6.75;2.75;;;;;;;;;;5002768;28;20047;-91
2024/02/14 14:26:45;;;;;;;8.60;3.50;;;;;;;;;;5002704;28;20367;-94
2024/02/14 14:29:12;;;;;;;7.57;3.45;;;;;;;;;;5014010;28;20054;-94
2024/02/14 14:31:40;;;;;;;16.25;3.25;;;;;;;;;;5006309;28;20054;-94
2024/02/14 14:34:07;;;;;;;8.73;3.15;;;;;;;;;;5002285;28;20081;-93
2024/02/14 14:36:37;;;;;;;3.42;2.50;;;;;;;;;;5001766;28;20054;-92
2024/02/14 14:39:06;;;;;;;2.67;2.45;;;;;;;;;;5002572;28;20065;-91
2024/02/14 14:41:33;;;;;;;4.78;2.45;;;;;;;;;;5003297;28;20058;-92
2024/02/14 14:44:00;;;;;;;7.22;2.40;;;;;;;;;;5001919;28;20070;-91
2024/02/14 14:46:30;;;;;;;5.25;2.08;;;;;;;;;;5002153;28;20064;-93